Strona główna
METAR-TAF:

METAR-TAF

Lotnisko :

Port lotniczy Boa Vista

Boa Vista, Roraima, Brazylia

Szerokość geograficzna: 02-50N, Długość geograficzna: 060-42W, wysokość: 84 m

Aktualna obserwacja pogody

Raport powstał 51 minut temu, godzina 14:00 UTC
Wiatr 15 kt od wschód
Temperatura 31°C
Wilgotność 49%
Ciśnienie 1013 hPa
Widzialność 10 km lub więcej
Przerywane chmury na wysokości 3000 ft

METAR: SBBV 191400Z 08015KT 9999 BKN030 31/19 Q1013

czas: 10:51 (14:51 UTC)

Prognoza

Raport powstał 5 godziny i 51 minut temu, godzina 09:00 UTC
Prognoza ważna od 19 godzina 12 UTC do 20 godzina 12 UTC
Wiatr 15 kt od wschód
Widzialność 10 km lub więcej
Mało chmury na wysokości 4000 ft

TAF: SBBV 190900Z 1912/2012 10015KT 9999 FEW040 TX34/1918Z TN26/2009Z RMK PHD

Obserwacja i prognoza pogody dla ponad 4000 lotnisk (raport METAR i TAF).

Dostępne stacje oznaczono żółtymi i czerwonymi punktami na mapie.

Najedź kursorem aby zobaczyć nazwę stacji.

Kliknij aby zobaczyć obserwacje i prognozy pogody.

Aby zmienić mapę: kliknij na zielony przycisk z czarnym krzyżykiem, aby powiększyć; na zielony przycisk z myślnikiem, aby pomniejszyć; na zielone strzałki, aby przejść do map sąsiednich.


METAR-TAF: